Time;durP1;ratioP1;P1;durP2;ratioP2;P2;SDS_P1;SDS_P2;PMS_P1;PMS_P2;Temp;Humidity;BMP_temperature;BMP_pressure;BME280_temperature;BME280_humidity;BME280_pressure;Samples;Min_cycle;Max_cycle;Signal;HPM_P1;HPM_P2
2022/11/10 00:02:08;;;;;;;;;;;9.50;99.90;;;;;;4988193;28;19926;-73
2022/11/10 00:04:34;;;;;;;;;;;9.50;99.90;;;;;;4988257;28;20447;-73
2022/11/10 00:07:01;;;;;;;;;;;9.40;99.90;;;;;;4988788;28;19926;-73
2022/11/10 00:09:29;;;;;;;;;;;9.40;99.90;;;;;;4989798;28;19932;-73
2022/11/10 00:11:55;;;;;;;;;;;9.40;99.90;;;;;;4989157;28;19932;-74
2022/11/10 00:17:06;;;;;;;;;;;9.40;99.90;;;;;;4983302;28;19933;-73
2022/11/10 00:19:34;;;;;;;;;;;9.30;99.90;;;;;;4995014;28;20000;-73
2022/11/10 00:22:01;;;;;;;;;;;9.30;99.90;;;;;;4987074;28;20028;-73
2022/11/10 00:24:29;;;;;;;;;;;9.30;99.90;;;;;;4988865;28;19926;-72
2022/11/10 00:26:56;;;;;;;;;;;9.30;99.90;;;;;;4988242;28;20305;-73
2022/11/10 00:29:23;;;;;;;;;;;9.20;99.90;;;;;;4990407;28;19932;-73
2022/11/10 00:31:49;;;;;;;;;;;9.20;99.90;;;;;;4989215;28;20014;-73
2022/11/10 00:34:17;;;;;;;;;;;9.20;99.90;;;;;;4988678;28;19941;-74
2022/11/10 00:36:44;;;;;;;;;;;9.20;99.90;;;;;;4989502;28;20029;-74
2022/11/10 00:39:11;;;;;;;;;;;9.20;99.90;;;;;;4989022;28;20019;-74
2022/11/10 00:41:39;;;;;;;;;;;9.20;99.90;;;;;;4988895;28;19926;-74
2022/11/10 00:44:05;;;;;;;;;;;9.20;99.90;;;;;;4988007;28;19977;-74
2022/11/10 00:46:32;;;;;;;;;;;9.20;99.90;;;;;;4987503;28;19926;-73
2022/11/10 00:48:59;;;;;;;;;;;9.20;99.90;;;;;;4989869;28;20364;-73
2022/11/10 00:51:26;;;;;;;;;;;9.20;99.90;;;;;;4990163;28;19926;-73
2022/11/10 00:53:53;;;;;;;;;;;9.20;99.90;;;;;;4986537;28;19932;-73
2022/11/10 00:56:20;;;;;;;;;;;9.20;99.90;;;;;;4989409;28;19930;-73
2022/11/10 00:58:48;;;;;;;;;;;9.30;99.90;;;;;;4989072;28;19933;-73
2022/11/10 01:01:16;;;;;;;;;;;9.30;99.90;;;;;;4987155;28;20345;-73
2022/11/10 01:03:43;;;;;;;;;;;9.40;99.90;;;;;;4987948;28;20016;-74
2022/11/10 01:06:10;;;;;;;;;;;9.40;99.90;;;;;;4992377;28;20020;-73
2022/11/10 01:08:37;;;;;;;;;;;9.40;99.90;;;;;;4992718;28;19933;-73
2022/11/10 01:11:05;;;;;;;;;;;9.40;99.90;;;;;;4991055;28;19926;-73
2022/11/10 01:13:32;;;;;;;;;;;9.40;99.90;;;;;;4989132;28;19929;-73
2022/11/10 01:16:04;;;;;;;;;;;9.30;99.90;;;;;;4988616;28;19961;-73
2022/11/10 01:18:30;;;;;;;;;;;9.30;99.90;;;;;;4981099;28;19926;-74
2022/11/10 01:20:57;;;;;;;;;;;9.30;99.90;;;;;;4982025;28;20020;-73
2022/11/10 01:23:24;;;;;;;;;;;9.30;99.90;;;;;;4991192;28;19926;-73
2022/11/10 01:25:50;;;;;;;;;;;9.30;99.90;;;;;;4989723;28;19940;-73
2022/11/10 01:28:17;;;;;;;;;;;9.30;99.90;;;;;;4991829;28;19933;-73
2022/11/10 01:30:44;;;;;;;;;;;9.30;99.90;;;;;;4992380;28;19926;-74
2022/11/10 01:33:12;;;;;;;;;;;9.20;99.90;;;;;;4990522;28;19948;-74
2022/11/10 01:35:38;;;;;;;;;;;9.20;99.90;;;;;;4986513;28;19932;-74
2022/11/10 01:38:05;;;;;;;;;;;9.20;99.90;;;;;;4990603;28;20380;-74
2022/11/10 01:40:32;;;;;;;;;;;9.20;99.90;;;;;;4991963;28;19936;-73
2022/11/10 01:42:58;;;;;;;;;;;9.20;99.90;;;;;;4991888;28;19925;-73
2022/11/10 01:45:43;;;;;;;;;;;9.20;99.90;;;;;;4992600;28;19926;-74
2022/11/10 01:48:12;;;;;;;;;;;9.20;99.90;;;;;;4993675;28;19973;-73
2022/11/10 01:50:41;;;;;;;;;;;9.20;99.90;;;;;;4991596;28;20005;-73
2022/11/10 01:53:11;;;;;;;;;;;9.20;99.90;;;;;;4992207;28;20055;-73
2022/11/10 01:55:39;;;;;;;;;;;9.20;99.90;;;;;;4987089;28;20281;-73
2022/11/10 01:58:05;;;;;;;;;;;9.20;99.90;;;;;;4989322;28;20390;-72
2022/11/10 02:00:32;;;;;;;;;;;9.10;99.90;;;;;;4990175;28;20367;-73
2022/11/10 02:03:01;;;;;;;;;;;9.10;99.90;;;;;;4990310;28;20016;-73
2022/11/10 02:05:28;;;;;;;;;;;9.10;99.90;;;;;;4991922;28;20018;-73
2022/11/10 02:07:56;;;;;;;;;;;9.00;99.90;;;;;;4991674;28;20013;-73
2022/11/10 02:10:23;;;;;;;;;;;9.00;99.90;;;;;;4991293;28;20416;-73
2022/11/10 02:12:50;;;;;;;;;;;9.00;99.90;;;;;;4990662;28;20460;-73
2022/11/10 02:15:17;;;;;;;;;;;9.00;99.90;;;;;;4991542;28;20012;-74
2022/11/10 02:17:45;;;;;;;;;;;9.00;99.90;;;;;;4991338;28;20024;-73
2022/11/10 02:20:13;;;;;;;;;;;9.10;99.90;;;;;;4991854;28;20004;-73
2022/11/10 02:22:41;;;;;;;;;;;9.00;99.90;;;;;;4991340;28;20410;-72
2022/11/10 02:25:08;;;;;;;;;;;9.00;99.90;;;;;;4989834;28;20025;-73
2022/11/10 02:27:35;;;;;;;;;;;9.00;99.90;;;;;;4991314;28;19926;-73
2022/11/10 02:30:01;;;;;;;;;;;9.00;99.90;;;;;;4991095;28;20020;-73
2022/11/10 02:32:28;;;;;;;;;;;9.00;99.90;;;;;;4990849;28;19926;-72
2022/11/10 02:34:55;;;;;;;;;;;9.00;99.90;;;;;;4991118;28;19925;-73
2022/11/10 02:37:21;;;;;;;;;;;9.00;99.90;;;;;;4990375;28;20350;-74
2022/11/10 02:39:49;;;;;;;;;;;9.00;99.90;;;;;;4990713;28;19932;-73
2022/11/10 02:42:16;;;;;;;;;;;9.00;99.90;;;;;;4993289;28;19926;-73
2022/11/10 02:44:43;;;;;;;;;;;9.00;99.90;;;;;;4990412;28;20455;-74
2022/11/10 02:47:09;;;;;;;;;;;9.00;99.90;;;;;;4990985;28;20246;-74
2022/11/10 02:49:36;;;;;;;;;;;9.00;99.90;;;;;;4989684;28;20025;-74
2022/11/10 02:52:03;;;;;;;;;;;9.00;99.90;;;;;;4989498;28;20296;-74
2022/11/10 02:54:29;;;;;;;;;;;9.00;99.90;;;;;;4990744;28;20414;-73
2022/11/10 02:56:57;;;;;;;;;;;9.00;99.90;;;;;;4978251;28;20347;-74
2022/11/10 02:59:24;;;;;;;;;;;9.00;99.90;;;;;;4990976;28;19968;-73
2022/11/10 03:01:51;;;;;;;;;;;9.00;99.90;;;;;;4990749;28;19926;-74
2022/11/10 03:04:17;;;;;;;;;;;9.00;99.90;;;;;;4991283;28;20020;-74
2022/11/10 03:06:44;;;;;;;;;;;9.00;99.90;;;;;;4991309;28;19977;-74
2022/11/10 03:09:11;;;;;;;;;;;9.00;99.90;;;;;;4991524;28;20025;-74
2022/11/10 03:11:37;;;;;;;;;;;9.00;99.90;;;;;;4990617;28;20024;-74
2022/11/10 03:14:05;;;;;;;;;;;9.00;99.90;;;;;;4990323;28;20012;-74
2022/11/10 03:16:32;;;;;;;;;;;9.00;99.90;;;;;;4988597;28;19926;-73
2022/11/10 03:18:59;;;;;;;;;;;8.90;99.90;;;;;;4982721;28;19926;-74
2022/11/10 03:21:25;;;;;;;;;;;8.90;99.90;;;;;;4990206;28;20016;-73
2022/11/10 03:23:52;;;;;;;;;;;8.90;99.90;;;;;;4990543;28;20016;-73
2022/11/10 03:26:18;;;;;;;;;;;8.90;99.90;;;;;;4989723;28;20012;-74
2022/11/10 03:28:45;;;;;;;;;;;8.90;99.90;;;;;;4989425;28;20005;-73
2022/11/10 03:31:13;;;;;;;;;;;8.90;99.90;;;;;;4990244;28;19969;-73
2022/11/10 03:33:40;;;;;;;;;;;9.00;99.90;;;;;;4988398;28;20016;-73
2022/11/10 03:36:07;;;;;;;;;;;9.00;99.90;;;;;;4990504;28;19925;-73
2022/11/10 03:38:33;;;;;;;;;;;9.10;99.90;;;;;;4989990;28;19926;-72
2022/11/10 03:41:00;;;;;;;;;;;9.20;99.90;;;;;;4990521;28;19926;-73
2022/11/10 03:43:26;;;;;;;;;;;9.20;99.90;;;;;;4990056;28;19926;-73
2022/11/10 03:45:53;;;;;;;;;;;9.30;99.90;;;;;;4988644;28;19971;-73
2022/11/10 03:48:21;;;;;;;;;;;9.30;99.90;;;;;;4990394;28;20272;-72
2022/11/10 03:50:48;;;;;;;;;;;9.30;99.90;;;;;;4990469;28;20124;-73
2022/11/10 03:53:14;;;;;;;;;;;9.30;99.90;;;;;;4990538;28;20308;-73
2022/11/10 03:55:41;;;;;;;;;;;9.30;99.90;;;;;;4990261;28;19969;-73
2022/11/10 03:58:08;;;;;;;;;;;9.30;99.90;;;;;;4989049;28;20024;-73
2022/11/10 04:00:34;;;;;;;;;;;9.20;99.90;;;;;;4989496;28;20303;-73
2022/11/10 04:03:01;;;;;;;;;;;9.20;99.90;;;;;;4989827;28;19930;-73
2022/11/10 04:10:58;;;;;;;;;;;9.10;99.90;;;;;;4975003;28;20296;-73
2022/11/10 04:16:09;;;;;;;;;;;9.00;99.90;;;;;;4982545;28;19937;-74
2022/11/10 04:18:35;;;;;;;;;;;8.90;99.90;;;;;;4982442;28;19926;-74
2022/11/10 04:21:03;;;;;;;;;;;8.90;99.90;;;;;;4986741;28;20013;-74
2022/11/10 04:23:33;;;;;;;;;;;8.80;99.90;;;;;;4989116;28;20016;-73
2022/11/10 04:28:46;;;;;;;;;;;8.70;99.90;;;;;;4989639;28;19972;-74
2022/11/10 04:31:13;;;;;;;;;;;8.70;99.90;;;;;;4989261;28;19926;-73
2022/11/10 04:33:41;;;;;;;;;;;8.70;99.90;;;;;;4989077;28;20024;-74
2022/11/10 04:36:11;;;;;;;;;;;8.70;99.90;;;;;;4989670;28;19937;-74
2022/11/10 04:38:37;;;;;;;;;;;8.70;99.90;;;;;;4990109;28;20407;-74
2022/11/10 04:41:04;;;;;;;;;;;8.70;99.90;;;;;;4992973;28;20048;-74
2022/11/10 04:43:31;;;;;;;;;;;8.80;99.90;;;;;;4992444;28;19926;-75
2022/11/10 04:45:58;;;;;;;;;;;8.70;99.90;;;;;;4992109;28;20020;-75
2022/11/10 04:48:27;;;;;;;;;;;8.70;99.90;;;;;;4992762;28;20017;-74
2022/11/10 04:50:54;;;;;;;;;;;8.70;99.90;;;;;;4992161;28;20016;-74
2022/11/10 04:53:24;;;;;;;;;;;8.70;99.90;;;;;;4992229;28;20008;-74
2022/11/10 04:55:50;;;;;;;;;;;8.70;99.90;;;;;;4991856;28;19926;-74
2022/11/10 04:58:17;;;;;;;;;;;8.60;99.90;;;;;;4991580;28;20042;-74
2022/11/10 05:00:44;;;;;;;;;;;8.60;99.90;;;;;;4990196;28;19926;-74
2022/11/10 05:03:11;;;;;;;;;;;8.60;99.90;;;;;;4991991;28;20020;-75
2022/11/10 05:05:38;;;;;;;;;;;8.60;99.90;;;;;;4992130;28;19932;-74
2022/11/10 05:08:05;;;;;;;;;;;8.60;99.90;;;;;;4982332;28;20373;-74
2022/11/10 05:10:33;;;;;;;;;;;8.50;99.90;;;;;;4991578;28;20357;-75
2022/11/10 05:13:00;;;;;;;;;;;8.50;99.90;;;;;;4992918;28;20389;-70
2022/11/10 05:15:27;;;;;;;;;;;8.60;99.90;;;;;;4992402;28;20456;-75
2022/11/10 05:17:54;;;;;;;;;;;8.50;99.90;;;;;;4991910;28;19965;-74
2022/11/10 05:20:21;;;;;;;;;;;8.50;99.90;;;;;;4991903;28;20037;-72
2022/11/10 05:23:36;;;;;;;;;;;8.50;99.90;;;;;;4991648;28;20310;-73
2022/11/10 05:25:37;;;;;;;;;;;8.50;99.90;;;;;;4992276;28;19948;-72
2022/11/10 05:28:05;;;;;;;;;;;8.50;99.90;;;;;;4986625;28;19933;-73
2022/11/10 05:30:31;;;;;;;;;;;8.50;99.90;;;;;;4990116;28;19930;-72
2022/11/10 05:32:58;;;;;;;;;;;8.50;99.90;;;;;;4992074;28;19926;-73
2022/11/10 05:35:25;;;;;;;;;;;8.50;99.90;;;;;;4979942;28;19932;-72
2022/11/10 05:37:51;;;;;;;;;;;8.40;99.90;;;;;;4980367;28;19926;-72
2022/11/10 05:40:18;;;;;;;;;;;8.40;99.90;;;;;;4993277;28;19926;-72
2022/11/10 05:42:47;;;;;;;;;;;8.50;99.90;;;;;;4985550;28;20383;-73
2022/11/10 05:45:13;;;;;;;;;;;8.50;99.90;;;;;;4989786;28;19926;-72
2022/11/10 05:47:40;;;;;;;;;;;8.50;99.90;;;;;;4991835;28;19952;-72
2022/11/10 05:50:08;;;;;;;;;;;8.50;99.90;;;;;;4991204;28;19969;-72
2022/11/10 05:52:34;;;;;;;;;;;8.50;99.90;;;;;;4987932;28;19934;-74
2022/11/10 05:55:01;;;;;;;;;;;8.50;99.90;;;;;;4988920;28;19925;-69
2022/11/10 05:57:28;;;;;;;;;;;8.50;99.90;;;;;;4992015;28;20385;-69
2022/11/10 05:59:56;;;;;;;;;;;8.40;99.90;;;;;;4992019;28;20020;-69
2022/11/10 06:02:22;;;;;;;;;;;8.40;99.90;;;;;;4992191;28;20455;-69
2022/11/10 06:04:49;;;;;;;;;;;8.40;99.90;;;;;;4976041;28;20503;-69
2022/11/10 06:07:16;;;;;;;;;;;8.40;99.90;;;;;;4984919;28;19932;-68
2022/11/10 06:09:42;;;;;;;;;;;8.40;99.90;;;;;;4991677;28;20444;-68
2022/11/10 06:12:09;;;;;;;;;;;8.40;99.90;;;;;;4991803;28;20376;-68
2022/11/10 06:14:35;;;;;;;;;;;8.40;99.90;;;;;;4990521;28;19926;-68
2022/11/10 06:17:03;;;;;;;;;;;8.40;99.90;;;;;;4991031;28;19933;-69
2022/11/10 06:19:30;;;;;;;;;;;8.40;99.90;;;;;;4991039;28;19926;-69
2022/11/10 06:21:57;;;;;;;;;;;8.40;99.90;;;;;;4991688;28;20020;-69
2022/11/10 06:24:23;;;;;;;;;;;8.40;99.90;;;;;;4989954;28;19971;-69
2022/11/10 06:26:50;;;;;;;;;;;8.30;99.90;;;;;;4991373;28;20032;-69
2022/11/10 06:29:17;;;;;;;;;;;8.30;99.90;;;;;;4991674;28;20029;-69
2022/11/10 06:31:43;;;;;;;;;;;8.30;99.90;;;;;;4990361;28;20021;-69
2022/11/10 06:34:11;;;;;;;;;;;8.30;99.90;;;;;;4990987;28;19980;-69
2022/11/10 06:36:39;;;;;;;;;;;8.40;99.90;;;;;;4992246;28;20179;-69
2022/11/10 06:39:06;;;;;;;;;;;8.40;99.90;;;;;;5010300;28;20380;-69
2022/11/10 06:41:33;;;;;;;;;;;8.40;99.90;;;;;;5004992;28;20067;-69
2022/11/10 06:44:00;;;;;;;;;;;8.40;99.90;;;;;;4981550;28;19930;-68
2022/11/10 06:46:26;;;;;;;;;;;8.40;99.90;;;;;;4982214;28;20013;-68
2022/11/10 06:48:53;;;;;;;;;;;8.40;99.90;;;;;;4989464;28;19926;-68
2022/11/10 06:51:21;;;;;;;;;;;8.40;99.90;;;;;;4990932;28;19965;-68
2022/11/10 06:53:48;;;;;;;;;;;8.40;99.90;;;;;;4990886;28;19926;-69
2022/11/10 06:56:14;;;;;;;;;;;8.40;99.90;;;;;;4990063;28;20284;-68
2022/11/10 06:58:41;;;;;;;;;;;8.40;99.90;;;;;;4987382;28;19979;-69
2022/11/10 07:01:08;;;;;;;;;;;8.40;99.90;;;;;;4976956;28;20017;-68
2022/11/10 07:03:36;;;;;;;;;;;8.40;99.90;;;;;;4976264;28;19927;-69
2022/11/10 07:06:03;;;;;;;;;;;8.40;99.90;;;;;;4981320;28;20477;-69
2022/11/10 07:08:31;;;;;;;;;;;8.40;99.90;;;;;;4990044;28;19945;-69
2022/11/10 07:10:58;;;;;;;;;;;8.50;99.90;;;;;;4986474;28;20027;-69
2022/11/10 07:13:24;;;;;;;;;;;8.60;99.90;;;;;;4987408;28;20403;-69
2022/11/10 07:15:51;;;;;;;;;;;8.60;99.90;;;;;;4989384;28;20476;-71
2022/11/10 07:18:18;;;;;;;;;;;8.70;99.90;;;;;;4988809;28;19933;-71
2022/11/10 07:20:45;;;;;;;;;;;8.70;99.90;;;;;;4988551;28;19926;-71
2022/11/10 07:23:11;;;;;;;;;;;8.70;99.90;;;;;;4988503;28;19934;-71
2022/11/10 07:25:39;;;;;;;;;;;8.70;99.90;;;;;;4978310;28;19932;-71
2022/11/10 07:28:09;;;;;;;;;;;8.70;99.90;;;;;;4980447;28;20369;-71
2022/11/10 07:30:36;;;;;;;;;;;8.80;99.90;;;;;;5003655;28;20381;-70
2022/11/10 07:33:04;;;;;;;;;;;8.80;99.90;;;;;;4984912;28;20363;-70
2022/11/10 07:35:31;;;;;;;;;;;8.80;99.90;;;;;;4996656;28;19926;-70
2022/11/10 07:38:01;;;;;;;;;;;8.90;99.90;;;;;;4984595;28;19934;-70
2022/11/10 07:40:27;;;;;;;;;;;8.90;99.90;;;;;;4987115;28;20020;-69
2022/11/10 07:42:56;;;;;;;;;;;9.00;99.90;;;;;;4988742;28;20303;-69
2022/11/10 07:45:22;;;;;;;;;;;9.00;99.90;;;;;;4989893;28;19933;-71
2022/11/10 07:47:50;;;;;;;;;;;9.00;99.90;;;;;;4989178;28;20017;-71
2022/11/10 07:50:17;;;;;;;;;;;9.10;99.90;;;;;;4988467;28;19926;-71
2022/11/10 07:52:43;;;;;;;;;;;9.10;99.90;;;;;;4982434;28;19926;-71
2022/11/10 07:55:10;;;;;;;;;;;9.10;99.90;;;;;;4988372;28;19969;-70
2022/11/10 07:57:37;;;;;;;;;;;9.20;99.90;;;;;;4979469;28;20303;-72
2022/11/10 08:00:06;;;;;;;;;;;9.20;99.90;;;;;;4986647;28;20356;-71
2022/11/10 08:02:33;;;;;;;;;;;9.20;99.90;;;;;;4984913;28;19956;-70
2022/11/10 08:04:59;;;;;;;;;;;9.50;99.90;;;;;;4985023;28;19952;-71
2022/11/10 08:07:26;;;;;;;;;;;10.50;99.90;;;;;;4990025;28;19926;-71
2022/11/10 08:09:52;;;;;;;;;;;11.50;99.90;;;;;;4990238;28;20020;-71
2022/11/10 08:12:19;;;;;;;;;;;12.20;99.90;;;;;;4990313;28;20415;-71
2022/11/10 08:14:46;;;;;;;;;;;12.80;99.90;;;;;;4990168;28;19973;-70
2022/11/10 08:17:14;;;;;;;;;;;13.10;99.90;;;;;;4992476;28;19942;-71
2022/11/10 08:19:40;;;;;;;;;;;13.30;99.90;;;;;;4987367;28;19940;-71
2022/11/10 08:22:07;;;;;;;;;;;13.40;99.90;;;;;;4986954;28;19969;-71
2022/11/10 08:24:34;;;;;;;;;;;13.80;99.90;;;;;;4986150;28;19926;-72
2022/11/10 08:27:01;;;;;;;;;;;14.10;99.90;;;;;;4979348;28;19957;-71
2022/11/10 08:29:28;;;;;;;;;;;14.20;99.90;;;;;;4989443;28;19995;-71
2022/11/10 08:31:54;;;;;;;;;;;14.00;99.90;;;;;;4988470;28;19926;-71
2022/11/10 08:34:23;;;;;;;;;;;14.10;99.90;;;;;;4986424;28;19926;-70
2022/11/10 08:36:51;;;;;;;;;;;14.50;99.90;;;;;;4997699;28;19937;-70
2022/11/10 08:39:18;;;;;;;;;;;14.60;99.90;;;;;;4988548;28;19933;-71
2022/11/10 08:41:45;;;;;;;;;;;15.00;99.90;;;;;;4990210;28;20439;-68
2022/11/10 08:44:12;;;;;;;;;;;15.20;99.90;;;;;;5001886;28;19981;-72
2022/11/10 08:46:39;;;;;;;;;;;15.00;99.90;;;;;;4992722;28;19926;-71
2022/11/10 08:49:06;;;;;;;;;;;14.60;99.90;;;;;;4988610;28;19933;-71
2022/11/10 08:51:34;;;;;;;;;;;15.00;99.90;;;;;;4986591;28;19991;-72
2022/11/10 08:54:03;;;;;;;;;;;14.90;99.90;;;;;;4986521;28;20054;-71
2022/11/10 08:56:30;;;;;;;;;;;15.00;99.90;;;;;;4990119;28;19948;-71
2022/11/10 08:58:56;;;;;;;;;;;15.30;99.90;;;;;;5003079;28;19929;-71
2022/11/10 09:01:23;;;;;;;;;;;14.90;99.90;;;;;;4988963;28;20028;-71
2022/11/10 09:03:50;;;;;;;;;;;14.70;99.90;;;;;;4989643;28;19926;-71
2022/11/10 09:06:17;;;;;;;;;;;14.60;99.90;;;;;;4987811;28;19973;-69
2022/11/10 09:08:45;;;;;;;;;;;14.70;99.90;;;;;;4984564;28;20338;-71
2022/11/10 09:11:11;;;;;;;;;;;15.00;99.90;;;;;;4988165;28;19937;-71
2022/11/10 09:13:38;;;;;;;;;;;14.20;99.90;;;;;;4991691;28;20020;-72
2022/11/10 09:16:05;;;;;;;;;;;13.10;99.90;;;;;;4990571;28;19957;-70
2022/11/10 09:18:32;;;;;;;;;;;12.50;99.90;;;;;;4981877;28;20011;-71
2022/11/10 09:20:59;;;;;;;;;;;12.20;99.90;;;;;;4986330;28;20020;-71
2022/11/10 09:23:27;;;;;;;;;;;12.00;99.90;;;;;;4985757;28;20016;-71
2022/11/10 09:25:55;;;;;;;;;;;11.90;99.90;;;;;;4989266;28;19930;-71
2022/11/10 09:28:22;;;;;;;;;;;11.80;99.90;;;;;;4989615;28;19926;-71
2022/11/10 09:30:50;;;;;;;;;;;11.80;99.90;;;;;;4992127;28;20366;-71
2022/11/10 09:33:16;;;;;;;;;;;11.80;99.90;;;;;;4990643;28;20017;-70
2022/11/10 09:35:43;;;;;;;;;;;11.70;99.90;;;;;;4989997;28;19926;-72
2022/11/10 09:38:10;;;;;;;;;;;11.80;99.90;;;;;;4988946;28;19926;-71
2022/11/10 09:40:43;;;;;;;;;;;11.90;99.90;;;;;;4991418;28;20405;-71
2022/11/10 09:43:14;;;;;;;;;;;11.90;99.90;;;;;;4991129;28;19926;-71
2022/11/10 09:45:43;;;;;;;;;;;12.00;99.90;;;;;;4990170;28;19954;-70
2022/11/10 09:48:15;;;;;;;;;;;12.00;99.90;;;;;;4990900;28;19948;-70
2022/11/10 09:50:44;;;;;;;;;;;12.10;99.90;;;;;;4986104;28;19933;-70
2022/11/10 09:53:14;;;;;;;;;;;12.20;99.90;;;;;;4981305;28;20045;-71
2022/11/10 09:55:43;;;;;;;;;;;12.30;99.90;;;;;;4988910;28;19974;-69
2022/11/10 09:58:13;;;;;;;;;;;12.30;99.90;;;;;;4991053;28;19929;-71
2022/11/10 10:00:41;;;;;;;;;;;12.30;99.90;;;;;;4990065;28;19926;-69
2022/11/10 10:03:12;;;;;;;;;;;12.40;99.90;;;;;;4990580;28;19930;-70
2022/11/10 10:05:50;;;;;;;;;;;12.40;99.90;;;;;;4991013;28;20036;-71
2022/11/10 10:08:23;;;;;;;;;;;12.50;99.90;;;;;;4991628;28;19926;-70
2022/11/10 10:10:56;;;;;;;;;;;12.50;99.90;;;;;;4990140;28;20369;-70
2022/11/10 10:13:44;;;;;;;;;;;12.50;99.90;;;;;;4991272;28;19926;-70
2022/11/10 10:16:16;;;;;;;;;;;12.60;99.90;;;;;;4988114;28;20339;-70
2022/11/10 10:18:48;;;;;;;;;;;12.60;99.90;;;;;;4981187;28;20020;-71
2022/11/10 10:21:23;;;;;;;;;;;12.70;99.90;;;;;;5020281;28;19924;-72
2022/11/10 10:23:51;;;;;;;;;;;12.80;99.90;;;;;;4992705;28;19968;-74
2022/11/10 10:26:19;;;;;;;;;;;12.80;99.90;;;;;;4990633;28;19976;-72
2022/11/10 10:28:46;;;;;;;;;;;12.90;99.90;;;;;;4991277;28;20016;-73
2022/11/10 10:31:17;;;;;;;;;;;13.00;99.90;;;;;;4989671;28;20021;-73
2022/11/10 10:33:45;;;;;;;;;;;13.00;99.90;;;;;;4985987;28;19937;-74
2022/11/10 10:36:15;;;;;;;;;;;13.00;99.90;;;;;;4990010;28;19973;-74
2022/11/10 10:38:43;;;;;;;;;;;13.00;99.90;;;;;;4988886;28;19971;-71
2022/11/10 10:41:13;;;;;;;;;;;13.00;99.90;;;;;;4988491;28;19926;-74
2022/11/10 10:43:41;;;;;;;;;;;13.10;99.90;;;;;;4984587;28;19961;-71
2022/11/10 10:46:09;;;;;;;;;;;13.10;99.90;;;;;;4989849;28;20338;-76
2022/11/10 10:48:37;;;;;;;;;;;13.20;99.90;;;;;;4989182;28;19937;-74
2022/11/10 10:51:04;;;;;;;;;;;13.40;99.90;;;;;;4989558;28;19965;-74
2022/11/10 10:53:31;;;;;;;;;;;13.50;99.90;;;;;;4989829;28;19937;-74
2022/11/10 10:55:59;;;;;;;;;;;13.60;99.90;;;;;;4991387;28;19926;-74
2022/11/10 10:58:27;;;;;;;;;;;13.70;99.90;;;;;;4984445;28;19926;-74
2022/11/10 11:00:56;;;;;;;;;;;13.70;99.90;;;;;;4989726;28;19933;-74
2022/11/10 11:03:27;;;;;;;;;;;13.80;99.90;;;;;;4988482;28;19925;-75
2022/11/10 11:06:01;;;;;;;;;;;13.90;99.90;;;;;;4990054;28;19948;-75
2022/11/10 11:08:28;;;;;;;;;;;13.80;99.90;;;;;;4987282;28;19948;-73
2022/11/10 11:10:54;;;;;;;;;;;13.70;99.90;;;;;;4989965;28;19926;-74
2022/11/10 11:13:22;;;;;;;;;;;13.70;99.90;;;;;;4982951;28;20312;-73
2022/11/10 11:15:56;;;;;;;;;;;13.80;99.90;;;;;;4988822;28;20079;-74
2022/11/10 11:18:23;;;;;;;;;;;13.90;99.90;;;;;;4979125;28;20023;-73
2022/11/10 11:20:56;;;;;;;;;;;13.90;99.90;;;;;;4986854;28;19933;-74
2022/11/10 11:23:34;;;;;;;;;;;14.00;99.90;;;;;;4990856;28;20489;-75
2022/11/10 11:26:09;;;;;;;;;;;14.10;99.90;;;;;;4989234;28;20006;-75
2022/11/10 11:28:42;;;;;;;;;;;14.10;99.90;;;;;;4986107;28;19941;-74
2022/11/10 11:31:14;;;;;;;;;;;14.20;99.90;;;;;;4989420;28;20372;-75
2022/11/10 11:33:44;;;;;;;;;;;14.20;99.90;;;;;;4989801;28;20028;-74
2022/11/10 11:36:17;;;;;;;;;;;14.20;99.90;;;;;;4989023;28;20380;-73
2022/11/10 11:38:53;;;;;;;;;;;14.10;99.90;;;;;;4988407;28;20385;-74
2022/11/10 11:41:24;;;;;;;;;;;14.10;99.90;;;;;;4985000;28;20044;-75
2022/11/10 11:43:58;;;;;;;;;;;14.10;99.90;;;;;;4990459;28;19926;-76
2022/11/10 11:46:30;;;;;;;;;;;14.20;99.90;;;;;;4991984;28;19976;-75
2022/11/10 11:49:02;;;;;;;;;;;14.20;99.90;;;;;;4991145;28;19983;-74
2022/11/10 11:51:34;;;;;;;;;;;14.30;99.90;;;;;;4986048;28;20016;-74
2022/11/10 11:54:18;;;;;;;;;;;14.40;99.90;;;;;;4989812;28;19962;-76
2022/11/10 11:56:48;;;;;;;;;;;14.50;99.90;;;;;;4993125;28;19930;-76
2022/11/10 11:59:35;;;;;;;;;;;14.60;99.90;;;;;;4988231;28;20380;-75
2022/11/10 12:02:14;;;;;;;;;;;14.60;99.90;;;;;;4985981;28;20028;-74
2022/11/10 12:04:51;;;;;;;;;;;14.40;99.90;;;;;;4989446;28;20038;-74
2022/11/10 12:07:24;;;;;;;;;;;14.40;99.90;;;;;;4987127;28;19972;-74
2022/11/10 12:09:57;;;;;;;;;;;14.40;99.90;;;;;;4988661;28;20004;-74
2022/11/10 12:12:39;;;;;;;;;;;14.40;99.90;;;;;;4989519;28;19972;-75
2022/11/10 12:15:15;;;;;;;;;;;14.50;99.90;;;;;;5011452;28;20491;-74
2022/11/10 12:17:47;;;;;;;;;;;14.60;99.90;;;;;;4985313;28;20476;-75
2022/11/10 12:20:20;;;;;;;;;;;14.70;99.90;;;;;;4989331;28;20005;-74
2022/11/10 12:22:49;;;;;;;;;;;14.70;99.90;;;;;;4989230;28;20352;-73
2022/11/10 12:25:22;;;;;;;;;;;14.80;99.90;;;;;;5008984;28;19926;-73
2022/11/10 12:27:52;;;;;;;;;;;14.80;99.90;;;;;;4987499;28;19936;-73
2022/11/10 12:30:20;;;;;;;;;;;14.90;99.90;;;;;;4988606;28;20007;-74
2022/11/10 12:32:48;;;;;;;;;;;14.90;99.90;;;;;;4989001;28;19981;-73
2022/11/10 12:35:18;;;;;;;;;;;14.90;99.90;;;;;;4988480;28;19926;-73
2022/11/10 12:37:47;;;;;;;;;;;14.90;99.90;;;;;;4986507;28;19932;-73
2022/11/10 12:40:16;;;;;;;;;;;15.00;99.90;;;;;;4988036;28;20376;-73
2022/11/10 12:42:45;;;;;;;;;;;15.00;99.90;;;;;;4988639;28;19926;-74
2022/11/10 12:45:18;;;;;;;;;;;14.90;99.90;;;;;;4990099;28;19926;-74
2022/11/10 12:47:46;;;;;;;;;;;14.90;99.90;;;;;;4988460;28;19989;-73
2022/11/10 12:50:24;;;;;;;;;;;14.90;99.90;;;;;;4978457;28;20324;-74
2022/11/10 12:52:53;;;;;;;;;;;15.00;99.90;;;;;;4974110;28;20377;-74
2022/11/10 12:55:20;;;;;;;;;;;15.10;99.90;;;;;;4985483;28;20026;-72
2022/11/10 12:57:48;;;;;;;;;;;15.10;99.90;;;;;;4989046;28;19940;-71
2022/11/10 13:00:25;;;;;;;;;;;14.90;99.90;;;;;;4990256;28;20410;-71
2022/11/10 13:02:54;;;;;;;;;;;14.90;99.90;;;;;;4978193;28;19926;-75
2022/11/10 13:05:26;;;;;;;;;;;15.00;99.90;;;;;;4983595;28;19930;-74
2022/11/10 13:08:05;;;;;;;;;;;14.90;99.90;;;;;;4980801;28;20384;-73
2022/11/10 13:10:32;;;;;;;;;;;14.90;99.90;;;;;;4989151;28;20425;-74
2022/11/10 13:12:59;;;;;;;;;;;14.90;99.90;;;;;;4991119;28;19988;-73
2022/11/10 13:15:41;;;;;;;;;;;14.90;99.90;;;;;;4993121;28;19926;-74
2022/11/10 13:18:09;;;;;;;;;;;14.90;99.90;;;;;;4984379;28;19926;-74
2022/11/10 13:20:49;;;;;;;;;;;14.90;99.90;;;;;;4988300;28;20013;-73
2022/11/10 13:23:28;;;;;;;;;;;14.90;99.90;;;;;;4989001;28;20451;-73
2022/11/10 13:25:59;;;;;;;;;;;14.90;99.90;;;;;;5005994;28;20018;-73
2022/11/10 13:28:44;;;;;;;;;;;14.80;99.90;;;;;;4990599;28;20025;-73
2022/11/10 13:31:41;;;;;;;;;;;14.80;99.90;;;;;;4992200;28;19952;-72
2022/11/10 13:34:14;;;;;;;;;;;14.70;99.90;;;;;;5027851;28;19929;-73
2022/11/10 13:36:42;;;;;;;;;;;14.80;99.90;;;;;;4996853;28;20311;-71
2022/11/10 13:39:23;;;;;;;;;;;14.70;99.90;;;;;;4989107;28;20009;-72
2022/11/10 13:41:51;;;;;;;;;;;14.60;99.90;;;;;;4987838;28;19937;-73
2022/11/10 13:44:22;;;;;;;;;;;14.60;99.90;;;;;;4989355;28;19972;-73
2022/11/10 13:46:56;;;;;;;;;;;14.60;99.90;;;;;;4984651;28;19976;-73
2022/11/10 13:49:31;;;;;;;;;;;14.60;99.90;;;;;;4990454;28;19933;-73
2022/11/10 13:52:06;;;;;;;;;;;14.60;99.90;;;;;;4987434;28;20010;-73
2022/11/10 13:54:47;;;;;;;;;;;14.60;99.90;;;;;;4990545;28;19926;-73
2022/11/10 13:57:23;;;;;;;;;;;14.60;99.90;;;;;;4988170;28;20024;-73
2022/11/10 13:59:52;;;;;;;;;;;14.50;99.90;;;;;;4987817;28;20044;-74
2022/11/10 14:02:39;;;;;;;;;;;14.50;99.90;;;;;;4986537;28;20029;-72
2022/11/10 14:05:08;;;;;;;;;;;14.50;99.90;;;;;;4982783;28;19926;-74
2022/11/10 14:07:37;;;;;;;;;;;14.50;99.90;;;;;;4993253;28;19937;-73
2022/11/10 14:10:05;;;;;;;;;;;14.50;99.90;;;;;;4988924;28;19933;-73
2022/11/10 14:12:35;;;;;;;;;;;14.50;99.90;;;;;;4990379;28;19965;-74
2022/11/10 14:15:03;;;;;;;;;;;14.50;99.90;;;;;;4987987;28;19961;-73
2022/11/10 14:17:32;;;;;;;;;;;14.50;99.90;;;;;;4976318;28;22197;-73
2022/11/10 14:19:59;;;;;;;;;;;14.50;99.90;;;;;;4988482;28;19926;-73
2022/11/10 14:22:28;;;;;;;;;;;14.40;99.90;;;;;;4990587;28;19930;-73
2022/11/10 14:24:59;;;;;;;;;;;14.40;99.90;;;;;;4985767;28;19926;-73
2022/11/10 14:27:27;;;;;;;;;;;14.40;99.90;;;;;;4991278;28;19930;-74
2022/11/10 14:30:08;;;;;;;;;;;14.30;99.90;;;;;;4989118;28;19933;-75
2022/11/10 14:32:35;;;;;;;;;;;14.30;99.90;;;;;;4991359;28;19930;-71
2022/11/10 14:35:02;;;;;;;;;;;14.20;99.90;;;;;;4990506;28;20359;-74
2022/11/10 14:37:30;;;;;;;;;;;14.20;99.90;;;;;;5032010;28;19932;-73
2022/11/10 14:39:58;;;;;;;;;;;14.10;99.90;;;;;;4985153;28;19926;-73
2022/11/10 14:42:25;;;;;;;;;;;14.10;99.90;;;;;;4988219;28;20024;-73
2022/11/10 14:45:05;;;;;;;;;;;14.10;99.90;;;;;;4991231;28;19979;-73
2022/11/10 14:47:31;;;;;;;;;;;14.00;99.90;;;;;;4982854;28;20319;-73